• Join FlightAware (Why Join?)
  • Login
  • US Flag 
05:50PM EDT


 

Airport Tracker/Info


-or-


 

Live Flight TrackerFlight Track Log ✈ EJA951 ✈ 09-Nov-2013 ✈ KBFI - KSBD

Flight Track Log - Related Links

Times and Time Zones

All times are in EST time to prevent confusion due to time zone crossing. See the EJA951 flight status page for this flight to view local times or setup timezone preferences in your user account.

Time Position Orientation Groundspeed Altitude Reporting Facility
EST Latitude Longitude Course Direction KTS MPH feet Rate Location/Type
05:00PM 37.4592 -119.2333 169° South 462 532 41,000  Level Los Angeles Center
05:01PM 37.3369 -119.2033 169° South 454 522 41,000  Level Los Angeles Center
05:02PM 37.2019 -119.1669 168° South 471 542 41,000  Level Los Angeles Center
05:03PM 37.0500 -119.1275 168° South 468 539 41,000  Level Los Angeles Center
05:04PM 36.9375 -119.0986 168° South 468 539 41,000  Level Los Angeles Center
05:06PM 36.7267 -119.0417 168° South  Level FlightAware Approximate
05:06PM 36.6336 -119.0217 168° South 466 536 41,000  Level Oakland Center
05:07PM 36.5058 -118.9903 169° South 468 539 41,000  Level Oakland Center
05:08PM 36.3519 -118.9514 168° South 468 539 41,000  Level Oakland Center
05:09PM 36.2247 -118.9158 167° South 468 539 41,000  Level Oakland Center
05:10PM 36.1036 -118.8525 157° South 471 542 41,000  Level Oakland Center
05:11PM 36.0308 -118.8119 156° South 468 539 41,000  Level Los Angeles Center
05:12PM 35.8869 -118.7342 156° South 468 539 41,000  Level Los Angeles Center
05:13PM 35.7661 -118.6692 156° South 471 542 41,000 -60 Level Los Angeles Center
05:14PM 35.6219 -118.5906 156° South 470 541 40,900 -1,200 Descending Los Angeles Center
05:15PM 35.5019 -118.5258 156° South 471 542 38,500 -2,520 Descending Los Angeles Center
05:16PM 35.3747 -118.4572 156° South 475 547 35,800 -2,520 Descending Los Angeles Center
05:17PM 35.2536 -118.3925 156° South 477 549 33,300 -2,400 Descending Los Angeles Center
05:18PM 35.1350 -118.3297 157° South 470 541 30,900 -2,580 Descending Los Angeles Center
05:19PM 34.9947 -118.2556 157° South 461 531 28,000 -2,580 Descending Los Angeles Center
05:20PM 34.8822 -118.1969 157° South 449 517 25,600 -1,980 Descending Los Angeles Center
05:22PM 34.7939 -118.1503 157° South 441 507 24,000 -1,500 Descending Los Angeles Center
05:23PM 34.6697 -118.0856 157° South 402 463 22,500 -1,440 Descending Los Angeles Center
05:24PM 34.5947 -117.9894 133° Southeast 410 472 21,100 -1,800 Descending Los Angeles Center
05:25PM 34.5289 -117.8433 119° Southeast 413 475 18,900 -1,920 Descending Los Angeles Center
05:26PM 34.4756 -117.7250 119° Southeast 407 468 17,200 -1,680 Descending Los Angeles Center
05:27PM 34.4272 -117.6208 119° Southeast 363 418 15,500 -1,680 Descending Los Angeles Center
05:28PM 34.3806 -117.5158 118° Southeast 316 364 13,800 -1,260 Descending Los Angeles Center
05:29PM 34.3397 -117.4286 120° Southeast 299 344 12,900 -1,260 Descending Los Angeles Center
05:30PM 34.2936 -117.3536 127° Southeast 283 326 11,200 -1,920 Descending Los Angeles Center
05:31PM 34.2194 -117.3644 187° South 270 311 9,000 -2,520 Descending Los Angeles Center
05:32PM 34.1506 -117.3600 177° South 248 285 6,100 -2,400 Descending Los Angeles Center
05:33PM 34.0983 -117.3358 159° South 215 247 4,100 -2,160 Descending Los Angeles Center
05:34PM 34.0833 -117.2833 109° East 155 178 2,000 -1,440 Descending Southern California TRACON
05:35PM 34.1000 -117.2500 59° Northeast 146 168 1,400 -600 Descending Southern California TRACON
05:37PM 34.0954 -117.2349 59° Northeast  Level Estimated
05:44PM 34.0954 -117.2349 59° Northeast  Level Estimated
05:45PM 34.0954 -117.2349 59° Northeast  Level Estimated
05:46PM 34.0954 -117.2349 59° Northeast  Level Estimated